sensor_id;sensor_type;location;lat;lon;timestamp;temperature;humidity
13091;DHT22;6611;52.604;13.438;2022-10-31T00:03:14;10.27;87.44
13091;DHT22;6611;52.604;13.438;2022-10-31T00:08:16;10.37;87.05
13091;DHT22;6611;52.604;13.438;2022-10-31T00:13:19;10.22;87.71
13091;DHT22;6611;52.604;13.438;2022-10-31T00:18:21;10.11;87.60
13091;DHT22;6611;52.604;13.438;2022-10-31T00:23:22;10.13;87.15
13091;DHT22;6611;52.604;13.438;2022-10-31T00:28:25;10.17;86.87
13091;DHT22;6611;52.604;13.438;2022-10-31T00:33:27;10.03;87.55
13091;DHT22;6611;52.604;13.438;2022-10-31T00:38:29;10.08;87.31
13091;DHT22;6611;52.604;13.438;2022-10-31T00:43:31;10.01;87.57
13091;DHT22;6611;52.604;13.438;2022-10-31T00:48:33;9.94;87.90
13091;DHT22;6611;52.604;13.438;2022-10-31T00:53:34;9.94;87.50
13091;DHT22;6611;52.604;13.438;2022-10-31T00:58:37;9.91;88.00
13091;DHT22;6611;52.604;13.438;2022-10-31T01:03:39;9.82;88.15
13091;DHT22;6611;52.604;13.438;2022-10-31T01:08:41;9.82;87.64
13091;DHT22;6611;52.604;13.438;2022-10-31T01:13:44;9.71;87.67
13091;DHT22;6611;52.604;13.438;2022-10-31T01:18:46;9.78;87.73
13091;DHT22;6611;52.604;13.438;2022-10-31T01:23:48;9.80;87.51
13091;DHT22;6611;52.604;13.438;2022-10-31T01:28:53;9.76;87.56
13091;DHT22;6611;52.604;13.438;2022-10-31T01:33:55;9.68;88.25
13091;DHT22;6611;52.604;13.438;2022-10-31T01:38:59;9.62;88.02
13091;DHT22;6611;52.604;13.438;2022-10-31T01:44:43;9.61;87.61
13091;DHT22;6611;52.604;13.438;2022-10-31T01:49:35;9.54;87.52
13091;DHT22;6611;52.604;13.438;2022-10-31T01:54:41;9.59;87.50
13091;DHT22;6611;52.604;13.438;2022-10-31T01:59:49;9.49;87.36
13091;DHT22;6611;52.604;13.438;2022-10-31T02:04:54;9.44;87.65
13091;DHT22;6611;52.604;13.438;2022-10-31T02:09:56;9.42;88.03
13091;DHT22;6611;52.604;13.438;2022-10-31T02:14:59;9.46;87.62
13091;DHT22;6611;52.604;13.438;2022-10-31T02:20:10;9.39;87.66
13091;DHT22;6611;52.604;13.438;2022-10-31T02:25:24;9.41;87.83
13091;DHT22;6611;52.604;13.438;2022-10-31T02:30:38;9.30;87.96
13091;DHT22;6611;52.604;13.438;2022-10-31T02:35:53;9.23;87.78
13091;DHT22;6611;52.604;13.438;2022-10-31T02:41:01;9.32;87.23
13091;DHT22;6611;52.604;13.438;2022-10-31T02:46:10;9.27;86.87
13091;DHT22;6611;52.604;13.438;2022-10-31T02:51:14;9.30;87.16
13091;DHT22;6611;52.604;13.438;2022-10-31T02:56:18;9.20;87.93
13091;DHT22;6611;52.604;13.438;2022-10-31T03:01:37;9.17;87.49
13091;DHT22;6611;52.604;13.438;2022-10-31T03:06:46;9.24;86.68
13091;DHT22;6611;52.604;13.438;2022-10-31T03:11:56;9.20;87.07
13091;DHT22;6611;52.604;13.438;2022-10-31T03:17:00;9.09;87.21
13091;DHT22;6611;52.604;13.438;2022-10-31T03:22:09;9.03;87.39
13091;DHT22;6611;52.604;13.438;2022-10-31T03:27:16;9.06;87.61
13091;DHT22;6611;52.604;13.438;2022-10-31T03:32:23;9.00;86.96
13091;DHT22;6611;52.604;13.438;2022-10-31T03:37:29;8.94;87.79
13091;DHT22;6611;52.604;13.438;2022-10-31T03:42:33;8.87;87.24
13091;DHT22;6611;52.604;13.438;2022-10-31T03:47:37;8.86;87.80
13091;DHT22;6611;52.604;13.438;2022-10-31T03:52:43;8.86;87.99
13091;DHT22;6611;52.604;13.438;2022-10-31T03:57:51;8.87;87.89
13091;DHT22;6611;52.604;13.438;2022-10-31T04:02:59;8.82;88.03
13091;DHT22;6611;52.604;13.438;2022-10-31T04:08:05;8.82;88.18
13091;DHT22;6611;52.604;13.438;2022-10-31T04:13:12;8.80;88.09
13091;DHT22;6611;52.604;13.438;2022-10-31T04:18:15;8.75;88.33
13091;DHT22;6611;52.604;13.438;2022-10-31T04:23:20;8.73;88.15
13091;DHT22;6611;52.604;13.438;2022-10-31T04:28:22;8.66;87.89
13091;DHT22;6611;52.604;13.438;2022-10-31T04:33:23;8.68;88.41
13091;DHT22;6611;52.604;13.438;2022-10-31T04:38:26;8.73;88.23
13091;DHT22;6611;52.604;13.438;2022-10-31T04:43:28;8.73;88.20
13091;DHT22;6611;52.604;13.438;2022-10-31T04:48:29;8.80;87.98
13091;DHT22;6611;52.604;13.438;2022-10-31T04:53:32;8.76;88.30
13091;DHT22;6611;52.604;13.438;2022-10-31T04:58:34;8.79;88.21
13091;DHT22;6611;52.604;13.438;2022-10-31T05:03:35;8.79;88.06
13091;DHT22;6611;52.604;13.438;2022-10-31T05:08:40;8.75;88.09
13091;DHT22;6611;52.604;13.438;2022-10-31T05:13:42;8.72;88.33
13091;DHT22;6611;52.604;13.438;2022-10-31T05:18:43;8.66;88.09
13091;DHT22;6611;52.604;13.438;2022-10-31T05:23:46;8.64;88.48
13091;DHT22;6611;52.604;13.438;2022-10-31T05:28:48;8.62;88.18
13091;DHT22;6611;52.604;13.438;2022-10-31T05:33:49;8.58;88.35
13091;DHT22;6611;52.604;13.438;2022-10-31T05:38:52;8.58;88.25
13091;DHT22;6611;52.604;13.438;2022-10-31T05:43:53;8.55;88.22
13091;DHT22;6611;52.604;13.438;2022-10-31T05:48:55;8.61;88.19
13091;DHT22;6611;52.604;13.438;2022-10-31T05:53:58;8.61;88.52
13091;DHT22;6611;52.604;13.438;2022-10-31T05:58:59;8.66;88.35
13091;DHT22;6611;52.604;13.438;2022-10-31T06:04:01;8.65;88.50
13091;DHT22;6611;52.604;13.438;2022-10-31T06:09:04;8.69;88.17
13091;DHT22;6611;52.604;13.438;2022-10-31T06:14:05;8.76;88.60
13091;DHT22;6611;52.604;13.438;2022-10-31T06:19:07;8.77;88.73
13091;DHT22;6611;52.604;13.438;2022-10-31T06:24:10;8.83;88.74
13091;DHT22;6611;52.604;13.438;2022-10-31T06:29:11;8.90;88.70
13091;DHT22;6611;52.604;13.438;2022-10-31T06:34:13;8.96;88.77
13091;DHT22;6611;52.604;13.438;2022-10-31T06:39:16;9.09;88.77
13091;DHT22;6611;52.604;13.438;2022-10-31T06:44:17;9.11;88.86
13091;DHT22;6611;52.604;13.438;2022-10-31T06:49:19;9.27;88.72
13091;DHT22;6611;52.604;13.438;2022-10-31T06:54:22;9.35;88.84
13091;DHT22;6611;52.604;13.438;2022-10-31T06:59:23;9.49;88.85
13091;DHT22;6611;52.604;13.438;2022-10-31T07:04:25;9.71;88.90
13091;DHT22;6611;52.604;13.438;2022-10-31T07:09:28;9.97;89.36
13091;DHT22;6611;52.604;13.438;2022-10-31T07:14:29;10.34;89.24
13091;DHT22;6611;52.604;13.438;2022-10-31T07:19:31;10.79;89.50
13091;DHT22;6611;52.604;13.438;2022-10-31T07:24:34;11.36;90.91
13091;DHT22;6611;52.604;13.438;2022-10-31T07:29:35;11.90;91.38
13091;DHT22;6611;52.604;13.438;2022-10-31T07:34:37;12.35;91.29
13091;DHT22;6611;52.604;13.438;2022-10-31T07:39:39;12.73;91.05
13091;DHT22;6611;52.604;13.438;2022-10-31T07:44:41;12.98;90.66
13091;DHT22;6611;52.604;13.438;2022-10-31T07:49:42;13.25;90.22
13091;DHT22;6611;52.604;13.438;2022-10-31T07:54:46;13.26;89.58
13091;DHT22;6611;52.604;13.438;2022-10-31T07:59:48;13.22;89.44
13091;DHT22;6611;52.604;13.438;2022-10-31T08:04:49;13.29;89.44
13091;DHT22;6611;52.604;13.438;2022-10-31T08:09:52;13.35;89.10
13091;DHT22;6611;52.604;13.438;2022-10-31T08:14:54;13.46;88.92
13091;DHT22;6611;52.604;13.438;2022-10-31T08:19:55;13.53;88.54
13091;DHT22;6611;52.604;13.438;2022-10-31T08:24:58;13.62;88.54
13091;DHT22;6611;52.604;13.438;2022-10-31T08:30:00;13.77;88.29
13091;DHT22;6611;52.604;13.438;2022-10-31T08:35:01;13.80;87.89
13091;DHT22;6611;52.604;13.438;2022-10-31T08:40:05;13.78;87.97
13091;DHT22;6611;52.604;13.438;2022-10-31T08:45:08;13.87;87.85
13091;DHT22;6611;52.604;13.438;2022-10-31T08:50:09;13.76;88.34
13091;DHT22;6611;52.604;13.438;2022-10-31T08:55:12;13.90;88.52
13091;DHT22;6611;52.604;13.438;2022-10-31T09:00:14;14.08;88.15
13091;DHT22;6611;52.604;13.438;2022-10-31T09:05:16;14.42;87.14
13091;DHT22;6611;52.604;13.438;2022-10-31T09:10:18;14.73;86.08
13091;DHT22;6611;52.604;13.438;2022-10-31T09:15:20;14.77;85.69
13091;DHT22;6611;52.604;13.438;2022-10-31T09:20:22;14.88;85.43
13091;DHT22;6611;52.604;13.438;2022-10-31T09:25:25;15.01;84.68
13091;DHT22;6611;52.604;13.438;2022-10-31T09:30:29;14.94;84.69
13091;DHT22;6611;52.604;13.438;2022-10-31T09:35:32;14.85;85.04
13091;DHT22;6611;52.604;13.438;2022-10-31T09:40:37;14.80;85.99
13091;DHT22;6611;52.604;13.438;2022-10-31T09:45:47;14.90;85.41
13091;DHT22;6611;52.604;13.438;2022-10-31T09:50:52;14.85;85.75
13091;DHT22;6611;52.604;13.438;2022-10-31T09:55:58;14.88;86.08
13091;DHT22;6611;52.604;13.438;2022-10-31T10:01:03;15.05;85.99
13091;DHT22;6611;52.604;13.438;2022-10-31T10:06:10;15.24;85.57
13091;DHT22;6611;52.604;13.438;2022-10-31T10:11:24;15.33;86.17
13091;DHT22;6611;52.604;13.438;2022-10-31T10:16:40;15.42;85.28
13091;DHT22;6611;52.604;13.438;2022-10-31T10:21:49;15.77;83.82
13091;DHT22;6611;52.604;13.438;2022-10-31T10:26:59;15.88;83.48
13091;DHT22;6611;52.604;13.438;2022-10-31T10:32:07;16.04;83.97
13091;DHT22;6611;52.604;13.438;2022-10-31T10:37:18;16.26;83.56
13091;DHT22;6611;52.604;13.438;2022-10-31T10:42:25;16.53;82.32
13091;DHT22;6611;52.604;13.438;2022-10-31T10:47:53;16.92;81.15
13091;DHT22;6611;52.604;13.438;2022-10-31T10:53:03;17.22;80.11
13091;DHT22;6611;52.604;13.438;2022-10-31T10:58:09;16.89;80.73
13091;DHT22;6611;52.604;13.438;2022-10-31T11:03:13;16.94;81.09
13091;DHT22;6611;52.604;13.438;2022-10-31T11:08:23;17.42;79.76
13091;DHT22;6611;52.604;13.438;2022-10-31T11:13:26;17.35;79.22
13091;DHT22;6611;52.604;13.438;2022-10-31T11:18:30;17.11;80.02
13091;DHT22;6611;52.604;13.438;2022-10-31T11:23:32;17.05;80.75
13091;DHT22;6611;52.604;13.438;2022-10-31T11:28:35;17.14;80.37
13091;DHT22;6611;52.604;13.438;2022-10-31T11:33:39;17.12;80.99
13091;DHT22;6611;52.604;13.438;2022-10-31T11:38:46;17.19;81.21
13091;DHT22;6611;52.604;13.438;2022-10-31T11:43:51;17.20;81.26
13091;DHT22;6611;52.604;13.438;2022-10-31T11:48:53;17.19;81.56
13091;DHT22;6611;52.604;13.438;2022-10-31T11:53:58;17.20;81.06
13091;DHT22;6611;52.604;13.438;2022-10-31T11:59:04;17.28;81.11
13091;DHT22;6611;52.604;13.438;2022-10-31T12:04:08;17.29;81.01
13091;DHT22;6611;52.604;13.438;2022-10-31T12:09:19;17.43;81.16
13091;DHT22;6611;52.604;13.438;2022-10-31T12:14:32;17.36;81.25
13091;DHT22;6611;52.604;13.438;2022-10-31T12:19:39;17.49;80.59
13091;DHT22;6611;52.604;13.438;2022-10-31T12:24:52;17.26;80.63
13091;DHT22;6611;52.604;13.438;2022-10-31T12:30:08;17.26;81.04
13091;DHT22;6611;52.604;13.438;2022-10-31T12:35:23;17.15;81.36
13091;DHT22;6611;52.604;13.438;2022-10-31T12:40:39;17.29;81.03
13091;DHT22;6611;52.604;13.438;2022-10-31T12:45:51;17.26;80.79
13091;DHT22;6611;52.604;13.438;2022-10-31T12:51:00;17.51;80.65
13091;DHT22;6611;52.604;13.438;2022-10-31T12:56:14;17.63;80.13
13091;DHT22;6611;52.604;13.438;2022-10-31T13:01:22;17.75;80.28
13091;DHT22;6611;52.604;13.438;2022-10-31T13:06:30;17.81;80.43
13091;DHT22;6611;52.604;13.438;2022-10-31T13:11:37;17.95;80.10
13091;DHT22;6611;52.604;13.438;2022-10-31T13:16:43;17.98;80.04
13091;DHT22;6611;52.604;13.438;2022-10-31T13:21:55;18.09;79.62
13091;DHT22;6611;52.604;13.438;2022-10-31T13:27:02;17.91;78.64
13091;DHT22;6611;52.604;13.438;2022-10-31T13:32:06;17.88;79.28
13091;DHT22;6611;52.604;13.438;2022-10-31T13:37:15;17.99;79.60
13091;DHT22;6611;52.604;13.438;2022-10-31T13:42:21;17.85;79.48
13091;DHT22;6611;52.604;13.438;2022-10-31T13:47:28;17.91;79.96
13091;DHT22;6611;52.604;13.438;2022-10-31T13:52:30;17.85;80.22
13091;DHT22;6611;52.604;13.438;2022-10-31T13:57:34;17.59;80.43
13091;DHT22;6611;52.604;13.438;2022-10-31T14:02:44;17.56;80.76
13091;DHT22;6611;52.604;13.438;2022-10-31T14:07:47;17.56;81.02
13091;DHT22;6611;52.604;13.438;2022-10-31T14:12:49;17.43;81.19
13091;DHT22;6611;52.604;13.438;2022-10-31T14:17:54;17.43;81.51
13091;DHT22;6611;52.604;13.438;2022-10-31T14:22:56;17.32;81.88
13091;DHT22;6611;52.604;13.438;2022-10-31T14:27:59;17.22;82.26
13091;DHT22;6611;52.604;13.438;2022-10-31T14:33:18;16.95;82.81
13091;DHT22;6611;52.604;13.438;2022-10-31T14:38:40;16.73;83.61
13091;DHT22;6611;52.604;13.438;2022-10-31T14:43:53;16.55;84.04
13091;DHT22;6611;52.604;13.438;2022-10-31T14:49:15;16.30;84.91
13091;DHT22;6611;52.604;13.438;2022-10-31T14:54:25;16.18;84.88
13091;DHT22;6611;52.604;13.438;2022-10-31T14:59:31;16.00;85.38
13091;DHT22;6611;52.604;13.438;2022-10-31T15:04:36;15.84;85.89
13091;DHT22;6611;52.604;13.438;2022-10-31T15:09:37;15.66;86.46
13091;DHT22;6611;52.604;13.438;2022-10-31T15:14:41;15.60;86.59
13091;DHT22;6611;52.604;13.438;2022-10-31T15:19:44;15.54;86.54
13091;DHT22;6611;52.604;13.438;2022-10-31T15:24:48;15.32;87.63
13091;DHT22;6611;52.604;13.438;2022-10-31T15:29:56;15.25;87.60
13091;DHT22;6611;52.604;13.438;2022-10-31T15:34:59;15.19;87.82
13091;DHT22;6611;52.604;13.438;2022-10-31T15:40:07;14.98;88.69
13091;DHT22;6611;52.604;13.438;2022-10-31T15:45:17;14.84;89.10
13091;DHT22;6611;52.604;13.438;2022-10-31T15:50:25;14.84;89.07
13091;DHT22;6611;52.604;13.438;2022-10-31T15:55:38;14.66;89.66
13091;DHT22;6611;52.604;13.438;2022-10-31T16:00:57;14.56;90.16
13091;DHT22;6611;52.604;13.438;2022-10-31T16:06:02;14.52;90.33
13091;DHT22;6611;52.604;13.438;2022-10-31T16:11:17;14.38;90.73
13091;DHT22;6611;52.604;13.438;2022-10-31T16:16:23;14.38;90.82
13091;DHT22;6611;52.604;13.438;2022-10-31T16:21:29;14.32;90.92
13091;DHT22;6611;52.604;13.438;2022-10-31T16:26:32;14.25;91.32
13091;DHT22;6611;52.604;13.438;2022-10-31T16:31:36;14.26;91.31
13091;DHT22;6611;52.604;13.438;2022-10-31T16:36:40;14.15;91.64
13091;DHT22;6611;52.604;13.438;2022-10-31T16:41:43;14.11;91.94
13091;DHT22;6611;52.604;13.438;2022-10-31T16:46:45;13.98;92.28
13091;DHT22;6611;52.604;13.438;2022-10-31T16:51:48;13.91;92.11
13091;DHT22;6611;52.604;13.438;2022-10-31T16:56:50;13.83;92.32
13091;DHT22;6611;52.604;13.438;2022-10-31T17:01:52;13.83;92.57
13091;DHT22;6611;52.604;13.438;2022-10-31T17:06:55;13.83;92.70
13091;DHT22;6611;52.604;13.438;2022-10-31T17:11:57;13.78;93.02
13091;DHT22;6611;52.604;13.438;2022-10-31T17:16:59;13.74;93.27
13091;DHT22;6611;52.604;13.438;2022-10-31T17:22:02;13.77;93.47
13091;DHT22;6611;52.604;13.438;2022-10-31T17:27:04;13.77;93.62
13091;DHT22;6611;52.604;13.438;2022-10-31T17:32:05;13.81;93.51
13091;DHT22;6611;52.604;13.438;2022-10-31T17:37:09;13.83;93.81
13091;DHT22;6611;52.604;13.438;2022-10-31T17:42:11;13.85;93.59
13091;DHT22;6611;52.604;13.438;2022-10-31T17:47:13;13.88;93.49
13091;DHT22;6611;52.604;13.438;2022-10-31T17:52:16;13.85;93.59
13091;DHT22;6611;52.604;13.438;2022-10-31T17:57:17;13.81;93.61
13091;DHT22;6611;52.604;13.438;2022-10-31T18:02:19;13.83;93.36
13091;DHT22;6611;52.604;13.438;2022-10-31T18:07:21;13.81;93.36
13091;DHT22;6611;52.604;13.438;2022-10-31T18:12:23;13.73;93.74
13091;DHT22;6611;52.604;13.438;2022-10-31T18:17:25;13.71;93.80
13091;DHT22;6611;52.604;13.438;2022-10-31T18:22:28;13.67;93.98
13091;DHT22;6611;52.604;13.438;2022-10-31T18:27:30;13.70;93.94
13091;DHT22;6611;52.604;13.438;2022-10-31T18:32:31;13.71;93.94
13091;DHT22;6611;52.604;13.438;2022-10-31T18:37:34;13.71;93.84
13091;DHT22;6611;52.604;13.438;2022-10-31T18:42:36;13.74;93.90
13091;DHT22;6611;52.604;13.438;2022-10-31T18:47:37;13.71;93.73
13091;DHT22;6611;52.604;13.438;2022-10-31T18:52:40;13.78;93.68
13091;DHT22;6611;52.604;13.438;2022-10-31T18:57:42;13.73;93.54
13091;DHT22;6611;52.604;13.438;2022-10-31T19:02:43;13.67;93.67
13091;DHT22;6611;52.604;13.438;2022-10-31T19:07:46;13.67;93.62
13091;DHT22;6611;52.604;13.438;2022-10-31T19:12:48;13.70;93.56
13091;DHT22;6611;52.604;13.438;2022-10-31T19:17:49;13.67;93.63
13091;DHT22;6611;52.604;13.438;2022-10-31T19:22:52;13.66;93.60
13091;DHT22;6611;52.604;13.438;2022-10-31T19:27:54;13.67;93.70
13091;DHT22;6611;52.604;13.438;2022-10-31T19:32:55;13.65;93.70
13091;DHT22;6611;52.604;13.438;2022-10-31T19:37:58;13.67;93.69
13091;DHT22;6611;52.604;13.438;2022-10-31T19:43:00;13.66;93.51
13091;DHT22;6611;52.604;13.438;2022-10-31T19:48:01;13.69;93.58
13091;DHT22;6611;52.604;13.438;2022-10-31T19:53:04;13.69;93.51
13091;DHT22;6611;52.604;13.438;2022-10-31T19:58:06;13.67;93.47
13091;DHT22;6611;52.604;13.438;2022-10-31T20:03:08;13.66;93.52
13091;DHT22;6611;52.604;13.438;2022-10-31T20:08:14;13.67;93.57
13091;DHT22;6611;52.604;13.438;2022-10-31T20:13:15;13.67;93.38
13091;DHT22;6611;52.604;13.438;2022-10-31T20:18:17;13.65;93.46
13091;DHT22;6611;52.604;13.438;2022-10-31T20:23:20;13.66;93.46
13091;DHT22;6611;52.604;13.438;2022-10-31T20:28:22;13.66;93.53
13091;DHT22;6611;52.604;13.438;2022-10-31T20:33:23;13.65;93.57
13091;DHT22;6611;52.604;13.438;2022-10-31T20:38:27;13.66;93.45
13091;DHT22;6611;52.604;13.438;2022-10-31T20:43:29;13.69;93.24
13091;DHT22;6611;52.604;13.438;2022-10-31T20:48:31;13.65;93.16
13091;DHT22;6611;52.604;13.438;2022-10-31T20:53:34;13.60;93.22
13091;DHT22;6611;52.604;13.438;2022-10-31T20:58:36;13.62;93.25
13091;DHT22;6611;52.604;13.438;2022-10-31T21:03:38;13.58;93.02
13091;DHT22;6611;52.604;13.438;2022-10-31T21:08:41;13.48;93.04
13091;DHT22;6611;52.604;13.438;2022-10-31T21:13:44;13.46;92.65
13091;DHT22;6611;52.604;13.438;2022-10-31T21:18:47;13.38;92.82
13091;DHT22;6611;52.604;13.438;2022-10-31T21:23:54;13.35;92.64
13091;DHT22;6611;52.604;13.438;2022-10-31T21:28:57;13.31;92.53
13091;DHT22;6611;52.604;13.438;2022-10-31T21:33:58;13.34;93.10
13091;DHT22;6611;52.604;13.438;2022-10-31T21:39:03;13.43;93.45
13091;DHT22;6611;52.604;13.438;2022-10-31T21:44:04;13.52;93.47
13091;DHT22;6611;52.604;13.438;2022-10-31T21:49:06;13.49;93.75
13091;DHT22;6611;52.604;13.438;2022-10-31T21:54:10;13.53;93.67
13091;DHT22;6611;52.604;13.438;2022-10-31T21:59:28;13.55;93.76
13091;DHT22;6611;52.604;13.438;2022-10-31T22:04:32;13.55;93.76
13091;DHT22;6611;52.604;13.438;2022-10-31T22:09:35;13.53;93.92
13091;DHT22;6611;52.604;13.438;2022-10-31T22:14:38;13.56;93.96
13091;DHT22;6611;52.604;13.438;2022-10-31T22:19:39;13.52;93.99
13091;DHT22;6611;52.604;13.438;2022-10-31T22:24:42;13.50;94.24
13091;DHT22;6611;52.604;13.438;2022-10-31T22:29:43;13.50;94.33
13091;DHT22;6611;52.604;13.438;2022-10-31T22:34:45;13.48;94.50
13091;DHT22;6611;52.604;13.438;2022-10-31T22:39:48;13.48;94.50
13091;DHT22;6611;52.604;13.438;2022-10-31T22:44:50;13.43;94.69
13091;DHT22;6611;52.604;13.438;2022-10-31T22:49:51;13.49;94.48
13091;DHT22;6611;52.604;13.438;2022-10-31T22:54:54;13.48;94.51
13091;DHT22;6611;52.604;13.438;2022-10-31T22:59:55;13.42;94.51
13091;DHT22;6611;52.604;13.438;2022-10-31T23:04:57;13.32;94.63
13091;DHT22;6611;52.604;13.438;2022-10-31T23:10:00;13.32;94.84
13091;DHT22;6611;52.604;13.438;2022-10-31T23:15:02;13.31;94.78
13091;DHT22;6611;52.604;13.438;2022-10-31T23:20:04;13.32;94.82
13091;DHT22;6611;52.604;13.438;2022-10-31T23:25:07;13.26;95.08
13091;DHT22;6611;52.604;13.438;2022-10-31T23:30:09;13.34;94.79
13091;DHT22;6611;52.604;13.438;2022-10-31T23:35:11;13.38;94.60
13091;DHT22;6611;52.604;13.438;2022-10-31T23:40:14;13.39;94.57
13091;DHT22;6611;52.604;13.438;2022-10-31T23:45:15;13.26;95.16
13091;DHT22;6611;52.604;13.438;2022-10-31T23:50:17;13.35;95.00
13091;DHT22;6611;52.604;13.438;2022-10-31T23:55:20;13.31;95.14
